Miyazaki Airport

Airport
ICAO code: 
RJFM
IATA Code: 
KMI
Summary
ICAO Region: 
APAC
Territory: 
Location: 
Miyazaki, Kyushu
Serving: 
Miyazaki
Elevation: 
19 ft
Coordinates: 
Aerial View: 
31° 52' 38" N, 131° 26' 55" E
Metar
Observation
RJFM 260600Z 01009KT 320V030 3500 -SHRA BR FEW002 SCT003 BKN006 21/20 Q1003
Station
Miyazaki Airport
Date/Time
2022-05-26 06:00:00
Wind direction
10°
Wind speed
09 kts
Lowest cloud amount
few clouds
Temperature
21°C
Dew point
20°C
Humidity
94%
QNH
1003 hPa
Weather condition
n/a

Miyazaki Airport is an airport located 3.2 km south southeast of Miyazaki, a city in the Miyazaki Prefecture of Japan.

Climatology

Humid Sub-tropical climate (Köppen climate classification Cfa)

Runways

Designator Length Width Surface Rops
9/27 2499 46 ASP Yes/Yes
Airport map: 
Aerial View: 

SKYbrary Partners:

Safety knowledge contributed by: